createdAt,value
2022-08-18T00:02:17.864Z,160.20
2022-08-18T00:04:48.889Z,156.43
2022-08-18T00:07:19.527Z,166.73
2022-08-18T00:09:47.774Z,181.90
2022-08-18T00:12:17.954Z,174.40
2022-08-18T00:14:45.533Z,185.27
2022-08-18T00:17:15.115Z,176.50
2022-08-18T00:19:46.803Z,175.87
2022-08-18T00:22:21.169Z,176.90
2022-08-18T00:24:50.412Z,185.90
2022-08-18T00:27:21.674Z,183.13
2022-08-18T00:29:50.845Z,192.20
2022-08-18T00:32:21.626Z,190.93
2022-08-18T00:34:49.163Z,188.27
2022-08-18T00:37:17.314Z,191.27
2022-08-18T00:39:46.596Z,199.87
2022-08-18T00:42:28.172Z,221.73
2022-08-18T00:45:00.815Z,196.30
2022-08-18T00:47:41.932Z,210.50
2022-08-18T00:50:20.326Z,201.90
2022-08-18T00:52:55.415Z,202.63
2022-08-18T00:55:23.330Z,186.83
2022-08-18T00:57:52.705Z,193.27
2022-08-18T01:00:21.143Z,183.27
2022-08-18T01:02:52.822Z,185.87
2022-08-18T01:05:25.011Z,176.70
2022-08-18T01:07:52.794Z,176.60
2022-08-18T01:10:22.493Z,171.70
2022-08-18T01:12:51.939Z,187.00
2022-08-18T01:15:27.778Z,187.73
2022-08-18T01:18:16.262Z,178.53
2022-08-18T01:21:06.255Z,205.10
2022-08-18T01:23:36.923Z,194.27
2022-08-18T01:26:04.206Z,189.23
2022-08-18T01:28:33.713Z,199.13
2022-08-18T01:31:02.734Z,173.17
2022-08-18T01:33:32.892Z,182.27
2022-08-18T01:36:03.518Z,162.83
2022-08-18T01:38:32.028Z,164.00
2022-08-18T01:41:28.984Z,172.37
2022-08-18T01:43:49.701Z,163.17
2022-08-18T01:46:19.886Z,163.70
2022-08-18T01:48:48.252Z,162.47
2022-08-18T01:51:17.835Z,160.93
2022-08-18T01:53:46.142Z,160.63
2022-08-18T01:56:17.569Z,174.23
2022-08-18T01:58:47.639Z,164.53
2022-08-18T02:01:15.317Z,179.60
2022-08-18T02:04:02.550Z,199.87
2022-08-18T02:06:46.416Z,223.90
2022-08-18T02:09:15.560Z,241.90
2022-08-18T02:11:56.145Z,233.67
2022-08-18T02:14:25.042Z,246.70
2022-08-18T02:17:01.690Z,250.17
2022-08-18T02:19:34.165Z,251.17
2022-08-18T02:22:02.720Z,261.90
2022-08-18T02:24:30.414Z,245.10
2022-08-18T02:26:59.338Z,252.93
2022-08-18T02:29:26.864Z,240.83
2022-08-18T02:31:54.477Z,230.70
2022-08-18T02:34:25.441Z,247.07
2022-08-18T02:36:53.188Z,272.10
2022-08-18T02:39:21.369Z,248.17
2022-08-18T02:41:48.903Z,261.27
2022-08-18T02:44:17.730Z,267.70
2022-08-18T02:46:45.240Z,262.47
2022-08-18T02:49:13.155Z,269.47
2022-08-18T02:51:40.717Z,271.90
2022-08-18T02:54:11.019Z,270.57
2022-08-18T02:56:40.960Z,266.67
2022-08-18T02:59:11.756Z,267.73
2022-08-18T03:01:43.161Z,294.40
2022-08-18T03:04:14.168Z,287.80
2022-08-18T03:06:42.274Z,304.50
2022-08-18T03:09:12.767Z,284.70
2022-08-18T03:11:40.750Z,336.90
2022-08-18T03:14:11.952Z,336.30
2022-08-18T03:16:52.872Z,336.33
2022-08-18T03:19:23.690Z,349.90
2022-08-18T03:21:51.375Z,336.43
2022-08-18T03:24:22.898Z,362.50
2022-08-18T03:26:52.651Z,350.27
2022-08-18T03:29:20.765Z,347.80
2022-08-18T03:31:50.178Z,333.17
2022-08-18T03:34:20.677Z,346.57
2022-08-18T03:36:49.862Z,334.53
2022-08-18T03:39:17.989Z,345.73
2022-08-18T03:41:58.141Z,329.67
2022-08-18T03:44:29.109Z,340.67
2022-08-18T03:46:58.303Z,338.10
2022-08-18T03:49:26.728Z,342.00
2022-08-18T03:51:54.467Z,346.70
2022-08-18T03:54:22.067Z,346.97
2022-08-18T03:56:50.285Z,316.53
2022-08-18T03:59:20.421Z,331.23
2022-08-18T04:01:49.438Z,339.97
2022-08-18T04:04:20.225Z,322.37
2022-08-18T04:06:51.134Z,339.03
2022-08-18T04:09:20.571Z,314.37
2022-08-18T04:11:49.023Z,292.53
2022-08-18T04:14:19.699Z,306.00
2022-08-18T04:16:48.929Z,294.67
2022-08-18T04:19:26.771Z,313.17
2022-08-18T04:21:56.461Z,309.47
2022-08-18T04:24:25.742Z,302.17
2022-08-18T04:26:53.268Z,293.27
2022-08-18T04:29:21.945Z,286.57
2022-08-18T04:31:50.134Z,286.27
2022-08-18T04:34:20.356Z,269.50
2022-08-18T04:36:47.877Z,273.40
2022-08-18T04:39:15.740Z,260.03
2022-08-18T04:41:44.656Z,263.80
2022-08-18T04:44:13.854Z,258.57
2022-08-18T04:46:42.585Z,252.13
2022-08-18T04:49:11.697Z,244.50
2022-08-18T04:52:26.949Z,231.00
2022-08-18T04:54:30.455Z,220.77
2022-08-18T04:56:58.136Z,216.77
2022-08-18T04:59:25.897Z,228.40
2022-08-18T05:01:53.431Z,234.07
2022-08-18T05:04:21.196Z,210.20
2022-08-18T05:06:51.225Z,213.50
2022-08-18T05:09:22.991Z,195.37
2022-08-18T05:11:51.562Z,204.57
2022-08-18T05:14:20.054Z,184.37
2022-08-18T05:16:49.577Z,188.67
2022-08-18T05:19:22.034Z,174.10
2022-08-18T05:21:53.321Z,179.00
2022-08-18T05:24:29.500Z,165.13
2022-08-18T05:27:00.090Z,155.53
2022-08-18T05:29:27.758Z,162.23
2022-08-18T05:32:03.530Z,145.33
2022-08-18T05:34:31.105Z,149.67
2022-08-18T05:37:06.237Z,154.70
2022-08-18T05:39:39.780Z,142.07
2022-08-18T05:42:10.010Z,138.17
2022-08-18T05:44:41.271Z,141.83
2022-08-18T05:47:12.837Z,130.37
2022-08-18T05:49:41.039Z,126.53
2022-08-18T05:52:14.943Z,134.57
2022-08-18T05:55:04.414Z,125.10
2022-08-18T05:57:38.777Z,120.03
2022-08-18T06:00:10.253Z,118.53
2022-08-18T06:02:45.919Z,108.10
2022-08-18T06:05:16.681Z,102.53
2022-08-18T06:07:51.219Z,98.53
2022-08-18T06:10:19.046Z,92.70
2022-08-18T06:12:49.146Z,92.57
2022-08-18T06:15:25.125Z,86.50
2022-08-18T06:18:11.910Z,79.30
2022-08-18T06:20:54.504Z,91.53
2022-08-18T06:23:29.822Z,89.83
2022-08-18T06:26:04.834Z,79.83
2022-08-18T06:28:45.109Z,77.57
2022-08-18T06:31:18.229Z,70.20
2022-08-18T06:33:51.275Z,72.97
2022-08-18T06:36:24.012Z,67.40
2022-08-18T06:39:04.435Z,63.87
2022-08-18T06:41:42.914Z,66.67
2022-08-18T06:44:15.314Z,65.10
2022-08-18T06:46:46.894Z,63.97
2022-08-18T06:49:22.917Z,63.37
2022-08-18T06:51:50.413Z,62.63
2022-08-18T06:54:30.577Z,60.10
2022-08-18T06:56:59.250Z,60.90
2022-08-18T06:59:28.731Z,53.33
2022-08-18T07:02:01.530Z,50.83
2022-08-18T07:04:45.701Z,48.33
2022-08-18T07:07:21.427Z,45.33
2022-08-18T07:09:50.543Z,46.73
2022-08-18T07:12:26.702Z,45.50
2022-08-18T07:15:00.227Z,44.27
2022-08-18T07:17:43.657Z,43.73
2022-08-18T07:20:20.939Z,45.42
2022-08-18T07:22:57.294Z,45.08
2022-08-18T07:25:31.986Z,44.00
2022-08-18T07:28:01.838Z,45.70
2022-08-18T07:30:33.635Z,40.35
2022-08-18T07:33:06.193Z,41.13
2022-08-18T07:35:37.483Z,40.63
2022-08-18T07:38:40.974Z,44.40
2022-08-18T07:41:01.267Z,44.63
2022-08-18T07:43:37.367Z,44.10
2022-08-18T07:46:11.804Z,47.57
2022-08-18T07:48:39.779Z,46.90
2022-08-18T07:51:16.509Z,52.57
2022-08-18T07:53:56.102Z,53.30
2022-08-18T07:56:34.226Z,50.23
2022-08-18T07:59:05.978Z,48.37
2022-08-18T08:04:26.150Z,49.63
2022-08-18T08:07:23.059Z,45.13
2022-08-18T08:09:51.737Z,43.70
2022-08-18T08:12:26.286Z,45.45
2022-08-18T08:15:01.846Z,43.65
2022-08-18T08:17:33.558Z,43.67
2022-08-18T08:20:17.694Z,44.78
2022-08-18T08:22:57.077Z,42.80
2022-08-18T08:25:45.925Z,40.72
2022-08-18T08:28:25.502Z,39.42
2022-08-18T08:31:13.573Z,40.15
2022-08-18T08:33:50.361Z,37.42
2022-08-18T08:36:22.499Z,38.40
2022-08-18T08:38:53.574Z,39.97
2022-08-18T08:41:28.087Z,39.55
2022-08-18T08:44:03.772Z,39.03
2022-08-18T08:46:35.946Z,39.78
2022-08-18T08:49:08.658Z,36.43
2022-08-18T08:51:40.994Z,37.87
2022-08-18T08:54:13.678Z,35.53
2022-08-18T08:56:45.268Z,36.70
2022-08-18T08:59:16.635Z,38.40
2022-08-18T09:01:49.324Z,37.33
2022-08-18T09:04:24.638Z,36.73
2022-08-18T09:07:01.606Z,36.30
2022-08-18T09:09:45.528Z,35.37
2022-08-18T09:12:29.016Z,37.00
2022-08-18T09:15:08.513Z,37.50
2022-08-18T09:17:59.171Z,40.53
2022-08-18T09:20:49.703Z,41.97
2022-08-18T09:23:19.973Z,39.40
2022-08-18T09:25:50.451Z,45.57
2022-08-18T09:28:19.945Z,40.57
2022-08-18T09:30:55.152Z,38.28
2022-08-18T09:33:31.913Z,36.75
2022-08-18T09:36:20.315Z,37.70
2022-08-18T09:39:08.663Z,38.17
2022-08-18T09:41:45.624Z,38.70
2022-08-18T09:44:55.589Z,38.92
2022-08-18T09:48:00.482Z,40.53
2022-08-18T09:51:01.482Z,37.80
2022-08-18T09:53:39.780Z,34.78
2022-08-18T09:56:07.354Z,35.72
2022-08-18T09:59:09.803Z,32.47
2022-08-18T10:01:41.333Z,30.80
2022-08-18T10:04:29.653Z,26.00
2022-08-18T10:09:58.646Z,29.23
2022-08-18T10:12:37.386Z,32.03
2022-08-18T10:15:33.556Z,41.45
2022-08-18T10:18:27.417Z,39.40
2022-08-18T10:21:01.767Z,33.35
2022-08-18T10:23:58.189Z,33.03
2022-08-18T10:27:09.158Z,31.63
2022-08-18T10:29:56.445Z,37.15
2022-08-18T10:32:52.279Z,38.13
2022-08-18T10:35:57.634Z,38.78
2022-08-18T10:38:49.681Z,39.10
2022-08-18T10:41:22.730Z,38.72
2022-08-18T10:43:55.593Z,38.33
2022-08-18T10:46:31.865Z,42.08
2022-08-18T10:49:06.852Z,39.58
2022-08-18T10:51:59.165Z,37.15
2022-08-18T10:54:51.073Z,38.38
2022-08-18T10:57:47.809Z,38.50
2022-08-18T11:00:19.690Z,36.67
2022-08-18T11:03:29.943Z,37.43
2022-08-18T11:05:51.299Z,38.03
2022-08-18T11:08:21.905Z,36.47
2022-08-18T11:11:24.907Z,33.03
2022-08-18T11:13:47.978Z,36.15
2022-08-18T11:16:25.664Z,35.60
2022-08-18T11:18:58.902Z,36.55
2022-08-18T11:21:33.008Z,35.08
2022-08-18T11:24:15.194Z,35.60
2022-08-18T11:26:53.172Z,34.70
2022-08-18T11:29:26.756Z,34.15
2022-08-18T11:32:02.136Z,37.00
2022-08-18T11:34:38.654Z,37.53
2022-08-18T11:37:25.480Z,35.85
2022-08-18T11:39:54.545Z,37.53
2022-08-18T11:42:29.157Z,36.53
2022-08-18T11:45:04.670Z,37.22
2022-08-18T11:47:32.259Z,36.95
2022-08-18T11:50:09.894Z,38.83
2022-08-18T11:52:49.329Z,35.42
2022-08-18T11:55:29.854Z,36.40
2022-08-18T11:58:00.263Z,35.65
2022-08-18T12:00:57.253Z,37.22
2022-08-18T12:03:32.805Z,38.75
2022-08-18T12:06:20.308Z,36.97
2022-08-18T12:08:58.162Z,36.10
2022-08-18T12:11:29.073Z,35.92
2022-08-18T12:16:54.388Z,35.50
2022-08-18T12:19:24.373Z,34.58
2022-08-18T12:21:55.532Z,32.90
2022-08-18T12:27:21.396Z,33.15
2022-08-18T12:29:50.222Z,34.63
2022-08-18T12:32:52.578Z,34.45
2022-08-18T12:35:09.408Z,33.10
2022-08-18T12:40:29.500Z,35.65
2022-08-18T12:42:57.812Z,32.85
2022-08-18T12:45:27.271Z,33.08
2022-08-18T12:47:55.300Z,33.22
2022-08-18T12:53:12.237Z,33.75
2022-08-18T12:58:30.205Z,33.85
2022-08-18T13:00:58.455Z,34.53
2022-08-18T13:06:13.884Z,33.63
2022-08-18T13:08:49.880Z,32.53
2022-08-18T13:11:23.833Z,32.55
2022-08-18T13:13:56.094Z,32.35
2022-08-18T13:16:38.873Z,32.17
2022-08-18T13:19:13.250Z,32.83
2022-08-18T13:21:43.043Z,31.75
2022-08-18T13:24:12.921Z,29.83
2022-08-18T13:26:42.794Z,31.40
2022-08-18T13:29:15.328Z,29.80
2022-08-18T13:31:57.608Z,30.17
2022-08-18T13:34:27.449Z,32.38
2022-08-18T13:36:57.427Z,31.08
2022-08-18T13:39:33.722Z,30.08
2022-08-18T13:42:26.839Z,31.77
2022-08-18T13:44:52.846Z,30.33
2022-08-18T13:47:21.126Z,29.25
2022-08-18T13:49:58.110Z,32.97
2022-08-18T13:52:34.949Z,31.50
2022-08-18T13:55:11.875Z,32.00
2022-08-18T13:57:48.115Z,32.72
2022-08-18T14:00:27.714Z,34.90
2022-08-18T14:03:03.094Z,33.35
2022-08-18T14:05:36.804Z,31.90
2022-08-18T14:08:19.915Z,32.67
2022-08-18T14:10:50.617Z,33.13
2022-08-18T14:13:20.737Z,30.85
2022-08-18T14:15:53.818Z,29.67
2022-08-18T14:18:22.671Z,30.83
2022-08-18T14:21:14.789Z,29.58
2022-08-18T14:24:10.244Z,29.98
2022-08-18T14:26:50.399Z,30.65
2022-08-18T14:29:46.153Z,29.25
2022-08-18T14:32:07.083Z,29.10
2022-08-18T14:34:34.884Z,28.75
2022-08-18T14:37:03.682Z,29.20
2022-08-18T14:39:31.253Z,28.42
2022-08-18T14:42:03.102Z,28.67
2022-08-18T14:44:32.539Z,27.88
2022-08-18T14:47:00.550Z,27.90
2022-08-18T14:49:31.075Z,27.00
2022-08-18T14:51:59.949Z,26.45
2022-08-18T14:54:30.107Z,25.95
2022-08-18T14:57:01.612Z,23.55
2022-08-18T14:59:34.528Z,23.38
2022-08-18T15:02:05.952Z,22.48
2022-08-18T15:04:53.250Z,24.38
2022-08-18T15:07:24.387Z,24.65
2022-08-18T15:09:51.887Z,23.48
2022-08-18T15:12:41.098Z,24.20
2022-08-18T15:15:12.946Z,23.60
2022-08-18T15:17:45.420Z,22.23
2022-08-18T15:20:18.105Z,22.55
2022-08-18T15:23:04.782Z,22.55
2022-08-18T15:25:45.365Z,20.48
2022-08-18T15:28:17.544Z,19.90
2022-08-18T15:30:51.073Z,19.40
2022-08-18T15:33:23.673Z,18.88
2022-08-18T15:35:52.359Z,18.85
2022-08-18T15:38:20.938Z,20.10
2022-08-18T15:40:57.145Z,19.80
2022-08-18T15:43:31.237Z,19.25
2022-08-18T15:45:59.716Z,19.55
2022-08-18T15:48:29.093Z,20.40
2022-08-18T15:50:56.947Z,19.92
2022-08-18T15:53:29.730Z,20.27
2022-08-18T15:55:58.266Z,20.77
2022-08-18T15:58:32.996Z,20.65
2022-08-18T16:01:00.556Z,20.48
2022-08-18T16:03:29.013Z,20.02
2022-08-18T16:05:56.512Z,19.52
2022-08-18T16:08:26.270Z,20.50
2022-08-18T16:10:54.692Z,19.90
2022-08-18T16:13:22.798Z,20.13
2022-08-18T16:15:52.283Z,20.52
2022-08-18T16:18:21.826Z,18.98
2022-08-18T16:20:52.771Z,20.23
2022-08-18T16:23:24.423Z,20.23
2022-08-18T16:25:51.973Z,19.63
2022-08-18T16:28:19.555Z,20.10
2022-08-18T16:30:47.726Z,21.63
2022-08-18T16:33:16.865Z,19.73
2022-08-18T16:35:45.263Z,20.88
2022-08-18T16:38:13.738Z,19.23
2022-08-18T16:40:41.298Z,19.58
2022-08-18T16:43:08.892Z,19.10
2022-08-18T16:45:37.965Z,18.90
2022-08-18T16:48:07.987Z,19.65
2022-08-18T16:50:37.608Z,19.48
2022-08-18T16:53:05.637Z,19.02
2022-08-18T16:55:34.011Z,19.00
2022-08-18T16:58:18.782Z,18.83
2022-08-18T17:01:04.057Z,18.35
2022-08-18T17:03:49.094Z,18.15
2022-08-18T17:06:19.486Z,19.50
2022-08-18T17:08:47.277Z,18.85
2022-08-18T17:11:17.411Z,18.00
2022-08-18T17:13:45.706Z,18.95
2022-08-18T17:16:13.731Z,18.73
2022-08-18T17:18:41.798Z,17.63
2022-08-18T17:21:13.089Z,18.95
2022-08-18T17:23:42.387Z,18.38
2022-08-18T17:26:16.468Z,18.42
2022-08-18T17:28:50.472Z,18.17
2022-08-18T17:31:21.044Z,18.25
2022-08-18T17:33:48.904Z,18.07
2022-08-18T17:36:22.204Z,18.73
2022-08-18T17:38:54.024Z,17.83
2022-08-18T17:41:23.542Z,17.97
2022-08-18T17:43:52.241Z,17.63
2022-08-18T17:46:25.870Z,18.67
2022-08-18T17:48:56.401Z,17.27
2022-08-18T17:51:34.938Z,18.47
2022-08-18T17:54:10.113Z,17.30
2022-08-18T17:56:40.006Z,17.87
2022-08-18T17:59:50.854Z,17.40
2022-08-18T18:02:28.800Z,17.13
2022-08-18T18:04:58.734Z,17.60
2022-08-18T18:07:28.189Z,17.63
2022-08-18T18:10:08.575Z,17.73
2022-08-18T18:12:38.158Z,17.30
2022-08-18T18:15:08.385Z,17.50
2022-08-18T18:17:38.277Z,17.47
2022-08-18T18:20:16.522Z,18.20
2022-08-18T18:22:45.607Z,16.77
2022-08-18T18:25:34.639Z,18.20
2022-08-18T18:28:02.438Z,16.77
2022-08-18T18:30:31.817Z,17.00
2022-08-18T18:33:02.562Z,16.23
2022-08-18T18:35:34.124Z,16.60
2022-08-18T18:38:03.406Z,16.43
2022-08-18T18:40:35.671Z,16.30
2022-08-18T18:43:24.786Z,16.07
2022-08-18T18:46:10.212Z,17.87
2022-08-18T18:48:52.038Z,15.60
2022-08-18T18:51:33.778Z,15.30
2022-08-18T18:54:12.715Z,15.50
2022-08-18T18:56:45.560Z,15.43
2022-08-18T18:59:20.373Z,14.77
2022-08-18T19:01:54.145Z,15.13
2022-08-18T19:04:27.074Z,16.03
2022-08-18T19:06:59.614Z,14.93
2022-08-18T19:09:32.507Z,14.80
2022-08-18T19:12:09.642Z,14.90
2022-08-18T19:14:40.431Z,14.80
2022-08-18T19:17:13.334Z,14.90
2022-08-18T19:19:44.534Z,14.60
2022-08-18T19:22:19.042Z,14.10
2022-08-18T19:24:52.391Z,13.47
2022-08-18T19:27:29.456Z,14.63
2022-08-18T19:30:00.551Z,14.17
2022-08-18T19:32:36.153Z,14.83
2022-08-18T19:35:12.148Z,13.67
2022-08-18T19:38:01.999Z,14.07
2022-08-18T19:40:38.186Z,15.27
2022-08-18T19:43:12.505Z,14.53
2022-08-18T19:45:47.632Z,14.10
2022-08-18T19:48:20.294Z,14.40
2022-08-18T19:50:52.445Z,13.93
2022-08-18T19:53:40.112Z,14.40
2022-08-18T19:56:21.473Z,12.97
2022-08-18T19:59:25.025Z,13.20
2022-08-18T20:02:02.802Z,13.07
2022-08-18T20:04:43.419Z,13.03
2022-08-18T20:07:47.034Z,13.17
2022-08-18T20:10:32.660Z,13.53
2022-08-18T20:13:13.661Z,13.63
2022-08-18T20:16:01.312Z,13.23
2022-08-18T20:18:35.412Z,13.40
2022-08-18T20:21:39.816Z,13.47
2022-08-18T20:24:30.103Z,13.30
2022-08-18T20:27:15.021Z,13.00
2022-08-18T20:29:48.622Z,13.53
2022-08-18T20:32:21.345Z,11.93
2022-08-18T20:34:51.973Z,13.40
2022-08-18T20:37:25.410Z,12.10
2022-08-18T20:39:56.286Z,12.87
2022-08-18T20:42:43.526Z,13.10
2022-08-18T20:45:24.946Z,12.97
2022-08-18T20:48:16.851Z,12.53
2022-08-18T20:50:57.451Z,12.73
2022-08-18T20:53:56.969Z,13.93
2022-08-18T20:56:32.740Z,12.70
2022-08-18T20:59:18.225Z,13.10
2022-08-18T21:01:57.602Z,12.70
2022-08-18T21:04:42.927Z,12.57
2022-08-18T21:07:36.987Z,11.97
2022-08-18T21:10:12.976Z,12.90
2022-08-18T21:12:51.618Z,13.20
2022-08-18T21:15:24.550Z,12.10
2022-08-18T21:18:03.737Z,12.13
2022-08-18T21:20:32.353Z,12.10
2022-08-18T21:23:08.213Z,12.47
2022-08-18T21:25:36.075Z,14.07
2022-08-18T21:28:06.021Z,15.00
2022-08-18T21:30:34.306Z,12.77
2022-08-18T21:33:01.957Z,11.97
2022-08-18T21:35:32.914Z,13.30
2022-08-18T21:38:02.751Z,12.73
2022-08-18T21:40:41.021Z,13.13
2022-08-18T21:43:09.494Z,13.17
2022-08-18T21:45:47.256Z,12.23
2022-08-18T21:48:15.306Z,13.27
2022-08-18T21:50:50.998Z,13.10
2022-08-18T21:53:21.929Z,12.67
2022-08-18T21:55:52.278Z,13.10
2022-08-18T21:58:32.679Z,14.07
2022-08-18T22:01:20.960Z,13.80
2022-08-18T22:03:54.436Z,13.23
2022-08-18T22:06:28.699Z,12.30
2022-08-18T22:09:20.364Z,16.50
2022-08-18T22:12:07.130Z,12.57
2022-08-18T22:14:54.703Z,12.83
2022-08-18T22:17:28.906Z,13.13
2022-08-18T22:19:57.583Z,12.43
2022-08-18T22:22:42.577Z,12.47
2022-08-18T22:25:12.906Z,13.97
2022-08-18T22:27:41.730Z,12.30
2022-08-18T22:30:09.849Z,12.97
2022-08-18T22:32:38.888Z,13.87
2022-08-18T22:35:09.319Z,13.47
2022-08-18T22:37:40.936Z,13.07
2022-08-18T22:40:10.982Z,16.13
2022-08-18T22:42:39.100Z,13.13
2022-08-18T22:45:13.383Z,13.67
2022-08-18T22:47:43.784Z,16.83
2022-08-18T22:50:13.590Z,16.40
2022-08-18T22:52:44.525Z,12.27
2022-08-18T22:55:13.741Z,14.03
2022-08-18T22:57:42.998Z,15.43
2022-08-18T23:00:15.412Z,14.47
2022-08-18T23:02:43.222Z,12.30
2022-08-18T23:05:11.985Z,14.63
2022-08-18T23:07:39.573Z,13.13
2022-08-18T23:10:13.603Z,13.53
2022-08-18T23:12:42.574Z,21.03
2022-08-18T23:15:12.066Z,16.13
2022-08-18T23:17:40.551Z,12.47
2022-08-18T23:20:09.853Z,16.10
2022-08-18T23:22:39.205Z,13.53
2022-08-18T23:25:09.480Z,13.63
2022-08-18T23:27:37.179Z,17.87
2022-08-18T23:30:05.578Z,14.43
2022-08-18T23:32:34.473Z,16.00
2022-08-18T23:35:02.334Z,14.13
2022-08-18T23:37:31.510Z,16.37
2022-08-18T23:39:59.126Z,18.17
2022-08-18T23:42:27.373Z,20.07
2022-08-18T23:45:03.746Z,13.37
2022-08-18T23:47:31.297Z,13.90
2022-08-18T23:50:00.169Z,16.80
2022-08-18T23:52:27.786Z,16.97
2022-08-18T23:54:56.462Z,17.23
2022-08-18T23:57:24.006Z,16.80
2022-08-18T23:59:51.522Z,16.63
